Jump to content


SKYWEST AIRLINES FLIGHT OO4531 FLOWN ON 02-08-2018 BY CAPTAIN JIM BOERMAN

Pilot StatsCaptain Jim Boerman (LDP136) • 4,917.8 total hours • 1,480 total flights [View Logbook]
FLIGHT DETAILS
StatusReceived and approved on 2018-02-08 at 11:02:40
Origin AirportCincinnati-Northern Ky Intl (KCVG) • Cincinnati, Ohio, United States (896 feet MSL)
Filed Flight PlanKCVG HICKI J24 VHP J80 FQF KDEN
Destination AirportDenver Intl (KDEN) • Denver, Colorado, United States (5,430 feet MSL)
Alternate AirportCity Of Colorado Springs Mun (KCOS) • Colorado Springs, Colorado, United States (6,182 feet MSL)
AirlineSkywest Airlines
AircraftBombardier CRJ-700 (CR7 / CRJ-700)
FS Aircraft UsedCRJ700ER United Express N770SK
Cruising AltitudeFL340
Distance Flown927 nautical miles
Passengers Onboard33 passengers (47.14% full)
DEPARTURE DETAILS
Time Out08:26:25
Taxi Data72,023 lbs total with 13,880 lbs of fuel onboard
Takeoff Data08:43:07 (17 minutes after leaving gate/ramp) • 72,400 lbs total • 6° pitch at 172 knots
Departure METARKCVG 081152Z 00000KT 9SM BKN018 M07/M09 A3044 RMK AO2 SNB11E39 SLP318 931000 BKN V OVC INTMT -SN P0000 60000 T10721094 11056 21089 51010
ARRIVAL DETAILS
Landing Data09:34:36 • 62,784 lbs total • 2° pitch doing 121 knots at a rate of -214.54 feet/minute with 3,461 lbs of fuel onboard
Time In09:45:40 (11 minutes after landing)
Ramp Weight62,462 lbs total
Total Fuel Used10,419 lbs
Total Block Time03:19:13 (3.3 hours) while 28 minutes were spent on the ground
Arrival METARKDEN 081553Z 24011KT 10SM FEW090 FEW140 BKN220 09/M06 A3016 RMK AO2 SLP192 T00891061
MISCELLANEOUS DETAILS
LiveDISPATCH Version4.8.3.1
FS Version
FSUIPC Version5.12
OS VersionWindows 7 32-bit
Screen Resolution1920 x 1080
Pilot's CommentsNo Comments Reported
FLIGHT MAP